Time;durP1;ratioP1;P1;durP2;ratioP2;P2;SDS_P1;SDS_P2;PMS_P1;PMS_P2;Temp;Humidity;BMP_temperature;BMP_pressure;BME280_temperature;BME280_humidity;BME280_pressure;Samples;Min_cycle;Max_cycle;Signal;HPM_P1;HPM_P2
2023/08/15 00:00:56;;;;;;;4.60;2.97;;;23.00;74.30;;;;;;5053058;28;20021;-67
2023/08/15 00:03:22;;;;;;;3.63;2.50;;;23.00;74.40;;;;;;5061522;28;20032;-67
2023/08/15 00:05:47;;;;;;;5.88;2.85;;;23.00;74.50;;;;;;5062552;28;20032;-68
2023/08/15 00:08:13;;;;;;;5.78;2.72;;;23.00;74.70;;;;;;5060399;28;20032;-68
2023/08/15 00:10:38;;;;;;;5.10;3.05;;;23.00;74.70;;;;;;5057542;28;20025;-67
2023/08/15 00:13:04;;;;;;;3.35;2.58;;;23.00;74.90;;;;;;5064005;28;20016;-67
2023/08/15 00:15:30;;;;;;;4.95;3.13;;;23.00;75.00;;;;;;5064810;28;20091;-68
2023/08/15 00:17:56;;;;;;;6.28;3.60;;;23.00;75.00;;;;;;5071404;28;20113;-67
2023/08/15 00:20:21;;;;;;;3.95;2.90;;;23.00;75.20;;;;;;5063355;28;20032;-69
2023/08/15 00:22:47;;;;;;;3.47;2.70;;;23.00;75.40;;;;;;5054661;28;20025;-67
2023/08/15 00:25:13;;;;;;;4.40;2.67;;;22.90;75.40;;;;;;5065529;28;20033;-67
2023/08/15 00:27:39;;;;;;;5.25;3.03;;;22.90;75.60;;;;;;5065041;28;20029;-68
2023/08/15 00:30:05;;;;;;;4.70;2.92;;;22.90;75.70;;;;;;5063407;28;20025;-68
2023/08/15 00:32:35;;;;;;;5.07;3.08;;;22.90;75.80;;;;;;5053656;28;20052;-68
2023/08/15 00:35:04;;;;;;;4.47;3.08;;;22.80;76.00;;;;;;5061936;28;20017;-66
2023/08/15 00:37:32;;;;;;;6.13;3.42;;;22.80;76.00;;;;;;5063859;28;20032;-66
2023/08/15 00:39:57;;;;;;;5.95;3.30;;;22.80;76.10;;;;;;5056876;28;20032;-66
2023/08/15 00:42:23;;;;;;;5.10;3.33;;;22.80;76.30;;;;;;5062347;28;20101;-66
2023/08/15 00:44:48;;;;;;;4.25;2.90;;;22.80;76.40;;;;;;5062827;28;20036;-69
2023/08/15 00:47:15;;;;;;;4.78;2.70;;;22.80;76.50;;;;;;5066981;28;20025;-68
2023/08/15 00:49:42;;;;;;;6.45;3.15;;;22.80;76.50;;;;;;5064155;28;20046;-68
2023/08/15 00:52:09;;;;;;;5.07;2.85;;;22.80;76.60;;;;;;5060359;28;20037;-68
2023/08/15 00:54:35;;;;;;;5.82;3.40;;;22.70;76.80;;;;;;5058287;28;20027;-68
2023/08/15 00:57:05;;;;;;;4.78;3.20;;;22.70;77.10;;;;;;5058205;28;20089;-68
2023/08/15 00:59:31;;;;;;;6.70;3.47;;;22.70;77.10;;;;;;5062821;28;20052;-67
2023/08/15 01:01:59;;;;;;;6.00;3.17;;;22.70;77.20;;;;;;5059943;28;20025;-68
2023/08/15 01:04:25;;;;;;;3.55;2.78;;;22.60;77.60;;;;;;5054250;28;20094;-68
2023/08/15 01:06:50;;;;;;;4.15;3.17;;;22.50;77.60;;;;;;5059606;28;20024;-67
2023/08/15 01:09:16;;;;;;;5.47;3.17;;;22.60;77.90;;;;;;5056295;28;20021;-67
2023/08/15 01:12:01;;;;;;;7.30;3.40;;;22.50;78.20;;;;;;5057934;28;20021;-68
2023/08/15 01:14:33;;;;;;;5.20;3.47;;;22.60;78.20;;;;;;5058288;28;20078;-67
2023/08/15 01:17:00;;;;;;;5.57;3.42;;;22.50;78.50;;;;;;5059473;28;20081;-68
2023/08/15 01:19:42;;;;;;;5.35;3.38;;;22.50;78.70;;;;;;5058701;28;20035;-69
2023/08/15 01:22:16;;;;;;;5.55;3.03;;;22.50;79.00;;;;;;5059494;28;20021;-67
2023/08/15 01:24:43;;;;;;;4.68;2.95;;;22.40;78.90;;;;;;5065378;28;20119;-67
2023/08/15 01:27:09;;;;;;;4.50;2.60;;;22.40;78.80;;;;;;5064163;28;20028;-68
2023/08/15 01:29:35;;;;;;;3.15;2.65;;;22.50;78.80;;;;;;5056095;28;20387;-68
2023/08/15 01:32:13;;;;;;;4.10;3.10;;;22.50;78.80;;;;;;5056138;28;20032;-69
2023/08/15 01:34:45;;;;;;;4.50;2.85;;;22.50;78.80;;;;;;5064805;28;20078;-70
2023/08/15 01:37:21;;;;;;;4.03;2.83;;;22.50;78.80;;;;;;5058942;28;20021;-70
2023/08/15 01:39:50;;;;;;;4.43;2.70;;;22.40;78.80;;;;;;5058760;28;20036;-68
2023/08/15 01:42:18;;;;;;;4.88;3.17;;;22.40;78.90;;;;;;5059145;28;20056;-69
2023/08/15 01:44:45;;;;;;;4.60;3.00;;;22.40;79.30;;;;;;5068871;28;20067;-68
2023/08/15 01:47:11;;;;;;;3.58;2.72;;;22.40;79.40;;;;;;5063101;28;20471;-68
2023/08/15 01:49:36;;;;;;;5.38;3.45;;;22.40;79.40;;;;;;5067395;28;20028;-69
2023/08/15 01:52:02;;;;;;;5.38;3.33;;;22.40;79.70;;;;;;5065992;28;20107;-69
2023/08/15 01:54:28;;;;;;;6.75;3.70;;;22.40;79.90;;;;;;5059386;28;20028;-68
2023/08/15 01:56:54;;;;;;;5.07;3.50;;;22.30;80.30;;;;;;5057670;28;20440;-69
2023/08/15 01:59:20;;;;;;;5.63;3.40;;;22.30;80.50;;;;;;5060529;28;20033;-69
2023/08/15 02:01:45;;;;;;;6.18;3.50;;;22.30;80.70;;;;;;5058674;28;20036;-69
2023/08/15 02:04:11;;;;;;;5.22;3.17;;;22.30;80.70;;;;;;5062307;28;20043;-69
2023/08/15 02:06:36;;;;;;;8.15;3.70;;;22.30;80.60;;;;;;5059934;28;20021;-69
2023/08/15 02:09:02;;;;;;;6.72;4.00;;;22.30;80.70;;;;;;5057889;28;20021;-69
2023/08/15 02:11:27;;;;;;;5.53;3.55;;;22.30;80.90;;;;;;5069087;28;20096;-68
2023/08/15 02:13:54;;;;;;;6.60;4.13;;;22.30;81.20;;;;;;5069229;28;20107;-70
2023/08/15 02:16:19;;;;;;;8.45;4.10;;;22.30;81.50;;;;;;5055233;28;20017;-69
2023/08/15 02:18:45;;;;;;;5.88;3.67;;;22.20;81.60;;;;;;5060057;28;20047;-69
2023/08/15 02:21:11;;;;;;;9.40;3.88;;;22.30;81.60;;;;;;5056095;28;20499;-69
2023/08/15 02:23:36;;;;;;;4.53;3.38;;;22.20;81.60;;;;;;5068951;28;20020;-69
2023/08/15 02:26:02;;;;;;;5.65;3.92;;;22.20;81.50;;;;;;5065202;28;20491;-69
2023/08/15 02:28:28;;;;;;;8.25;3.78;;;22.20;81.70;;;;;;5067176;28;20024;-68
2023/08/15 02:30:54;;;;;;;7.65;3.90;;;22.20;81.70;;;;;;5057634;28;20670;-68
2023/08/15 02:33:19;;;;;;;5.43;3.63;;;22.10;81.60;;;;;;5066109;28;20086;-68
2023/08/15 02:35:45;;;;;;;5.30;3.13;;;22.10;81.50;;;;;;5059970;28;20029;-68
2023/08/15 02:38:10;;;;;;;5.22;3.40;;;22.10;81.30;;;;;;5059911;28;20139;-68
2023/08/15 02:40:36;;;;;;;7.60;3.63;;;22.10;81.10;;;;;;5063101;28;20406;-68
2023/08/15 02:43:02;;;;;;;5.82;3.50;;;22.10;81.00;;;;;;5066854;28;20039;-68
2023/08/15 02:45:27;;;;;;;3.92;3.10;;;22.10;80.90;;;;;;5067102;28;20021;-68
2023/08/15 02:47:53;;;;;;;5.30;3.25;;;22.10;80.70;;;;;;5062267;28;20449;-68
2023/08/15 02:50:18;;;;;;;5.65;3.35;;;22.10;80.60;;;;;;5062582;28;20016;-67
2023/08/15 02:52:44;;;;;;;6.60;3.70;;;22.00;80.50;;;;;;5059884;28;20033;-67
2023/08/15 02:55:10;;;;;;;6.22;3.58;;;22.00;80.60;;;;;;5065476;28;20480;-68
2023/08/15 02:57:35;;;;;;;4.45;3.10;;;22.00;80.60;;;;;;5066926;28;20033;-68
2023/08/15 03:00:01;;;;;;;6.60;3.42;;;22.00;80.40;;;;;;5053380;28;20028;-69
2023/08/15 03:02:27;;;;;;;7.18;3.58;;;22.00;80.20;;;;;;5059279;28;20024;-68
2023/08/15 03:04:53;;;;;;;6.97;3.40;;;21.90;80.80;;;;;;5065288;28;20116;-67
2023/08/15 03:07:18;;;;;;;6.55;3.30;;;21.90;80.00;;;;;;5061071;28;20155;-69
2023/08/15 03:09:44;;;;;;;4.68;2.92;;;21.90;79.90;;;;;;5054493;28;20025;-69
2023/08/15 03:12:09;;;;;;;6.82;3.08;;;21.80;79.60;;;;;;5064987;28;20020;-68
2023/08/15 03:14:35;;;;;;;4.72;2.63;;;21.80;79.30;;;;;;5060957;28;20855;-67
2023/08/15 03:17:02;;;;;;;5.45;2.90;;;21.70;78.90;;;;;;5059148;28;20037;-67
2023/08/15 03:19:28;;;;;;;4.68;2.63;;;21.70;78.30;;;;;;5059017;28;20028;-68
2023/08/15 03:21:53;;;;;;;4.25;2.45;;;21.70;77.90;;;;;;5061291;28;20091;-68
2023/08/15 03:24:19;;;;;;;4.90;2.35;;;21.60;77.30;;;;;;5059839;28;20043;-69
2023/08/15 03:26:44;;;;;;;3.80;1.88;;;21.60;77.00;;;;;;5062351;28;20049;-68
2023/08/15 03:29:10;;;;;;;4.28;2.42;;;21.60;76.70;;;;;;5065574;28;20063;-68
2023/08/15 03:31:36;;;;;;;5.32;2.50;;;21.50;76.20;;;;;;5066101;28;20123;-68
2023/08/15 03:34:01;;;;;;;4.70;2.60;;;21.40;75.90;;;;;;5058923;28;20021;-68
2023/08/15 03:36:27;;;;;;;4.72;2.50;;;21.40;75.90;;;;;;5057193;28;20048;-68
2023/08/15 03:38:52;;;;;;;5.00;2.70;;;21.40;75.80;;;;;;5065365;28;20025;-69
2023/08/15 03:41:18;;;;;;;4.93;2.40;;;21.40;75.80;;;;;;5054800;28;20052;-69
2023/08/15 03:43:44;;;;;;;3.55;2.10;;;21.30;75.80;;;;;;5060223;28;20119;-69
2023/08/15 03:46:10;;;;;;;5.00;2.42;;;21.30;75.90;;;;;;5061658;28;20047;-69
2023/08/15 03:48:36;;;;;;;7.90;3.00;;;21.20;76.00;;;;;;5066098;28;20021;-68
2023/08/15 03:51:02;;;;;;;6.25;2.50;;;21.10;76.10;;;;;;5062334;28;20036;-68
2023/08/15 03:53:28;;;;;;;4.95;2.40;;;21.10;76.20;;;;;;5066258;28;20483;-68
2023/08/15 03:55:54;;;;;;;6.30;2.70;;;21.10;76.40;;;;;;5061688;28;20031;-68
2023/08/15 03:58:20;;;;;;;5.88;3.03;;;21.00;76.40;;;;;;5061969;28;20043;-68
2023/08/15 04:00:47;;;;;;;4.20;2.70;;;21.10;76.60;;;;;;5053232;28;20526;-68
2023/08/15 04:03:13;;;;;;;5.10;2.65;;;21.00;76.60;;;;;;5055067;28;20040;-68
2023/08/15 04:05:39;;;;;;;6.22;3.20;;;21.00;76.70;;;;;;5054960;28;20036;-69
2023/08/15 04:08:05;;;;;;;5.80;2.90;;;21.00;76.90;;;;;;5058174;28;20025;-68
2023/08/15 04:10:30;;;;;;;9.20;3.25;;;20.90;77.00;;;;;;5060616;28;20025;-67
2023/08/15 04:12:56;;;;;;;5.70;3.30;;;20.80;77.20;;;;;;5065114;28;20039;-67
2023/08/15 04:15:22;;;;;;;7.25;3.53;;;20.80;77.40;;;;;;5059267;28;20040;-67
2023/08/15 04:17:47;;;;;;;6.03;3.30;;;20.70;77.80;;;;;;5063408;28;20032;-68
2023/08/15 04:20:13;;;;;;;5.45;3.10;;;20.70;78.00;;;;;;5064325;28;20021;-67
2023/08/15 04:22:39;;;;;;;4.28;2.78;;;20.60;78.20;;;;;;5058027;28;20498;-69
2023/08/15 04:25:09;;;;;;;7.40;2.92;;;20.60;78.20;;;;;;5063409;28;20578;-68
2023/08/15 04:27:36;;;;;;;6.78;2.70;;;20.60;78.50;;;;;;5064515;28;20036;-69
2023/08/15 04:30:03;;;;;;;7.13;3.30;;;20.60;78.60;;;;;;5058061;28;20020;-68
2023/08/15 04:32:28;;;;;;;7.00;2.85;;;20.50;78.60;;;;;;5060333;28;20500;-68
2023/08/15 04:34:54;;;;;;;7.80;3.20;;;20.50;78.90;;;;;;5055441;28;20029;-67
2023/08/15 04:37:20;;;;;;;5.35;3.15;;;20.50;79.10;;;;;;5058498;28;20085;-67
2023/08/15 04:39:45;;;;;;;5.68;3.20;;;20.40;79.40;;;;;;5056114;28;20533;-67
2023/08/15 04:42:11;;;;;;;7.00;3.25;;;20.40;79.60;;;;;;5054173;28;20123;-68
2023/08/15 04:44:36;;;;;;;6.43;3.13;;;20.40;79.80;;;;;;5052413;28;20477;-68
2023/08/15 04:47:02;;;;;;;6.22;2.95;;;20.30;79.90;;;;;;5053115;28;20607;-68
2023/08/15 04:49:27;;;;;;;7.10;3.20;;;20.30;80.00;;;;;;5057189;28;20071;-68
2023/08/15 04:51:53;;;;;;;5.68;2.75;;;20.30;80.20;;;;;;5061920;28;20136;-68
2023/08/15 04:54:19;;;;;;;5.85;2.88;;;20.20;80.30;;;;;;5064325;28;20048;-67
2023/08/15 04:56:44;;;;;;;6.57;2.85;;;20.20;80.50;;;;;;5058927;28;20036;-67
2023/08/15 04:59:10;;;;;;;7.55;3.20;;;20.20;80.60;;;;;;5054445;28;20368;-68
2023/08/15 05:01:35;;;;;;;5.88;3.30;;;20.20;80.80;;;;;;5066295;28;20029;-68
2023/08/15 05:04:01;;;;;;;8.13;3.70;;;20.20;81.00;;;;;;5063515;28;20025;-67
2023/08/15 05:06:27;;;;;;;6.45;3.55;;;20.10;81.50;;;;;;5063045;28;20025;-67
2023/08/15 05:08:52;;;;;;;6.32;3.60;;;20.10;81.70;;;;;;5064175;28;20032;-68
2023/08/15 05:11:18;;;;;;;6.22;3.13;;;20.10;81.60;;;;;;5058692;28;20617;-68
2023/08/15 05:13:43;;;;;;;4.68;2.70;;;20.10;81.70;;;;;;5064783;28;20490;-67
2023/08/15 05:16:09;;;;;;;6.55;3.40;;;20.10;81.50;;;;;;5060066;28;20024;-67
2023/08/15 05:18:34;;;;;;;9.63;3.95;;;20.20;81.50;;;;;;5061945;28;20029;-68
2023/08/15 05:21:00;;;;;;;6.65;3.40;;;20.20;81.70;;;;;;5054229;28;20484;-68
2023/08/15 05:23:25;;;;;;;5.35;3.05;;;20.20;81.80;;;;;;5050164;28;20486;-68
2023/08/15 05:25:51;;;;;;;4.72;2.72;;;20.10;82.00;;;;;;5059048;28;20039;-68
2023/08/15 05:28:17;;;;;;;6.15;3.20;;;20.10;82.10;;;;;;5066079;28;20066;-69
2023/08/15 05:30:43;;;;;;;7.65;3.55;;;20.10;82.10;;;;;;5067880;28;20436;-68
2023/08/15 05:33:09;;;;;;;6.85;3.15;;;20.20;82.20;;;;;;5065910;28;20119;-68
2023/08/15 05:35:34;;;;;;;7.03;3.13;;;20.20;82.30;;;;;;5069092;28;20100;-67
2023/08/15 05:38:00;;;;;;;6.80;3.28;;;20.50;82.60;;;;;;5058173;28;20048;-68
2023/08/15 05:40:26;;;;;;;7.75;3.45;;;21.20;80.90;;;;;;5061062;28;20040;-68
2023/08/15 05:42:51;;;;;;;6.88;3.40;;;22.10;78.90;;;;;;5059715;28;20079;-68
2023/08/15 05:45:17;;;;;;;6.38;2.60;;;22.60;76.70;;;;;;5061794;28;20033;-69
2023/08/15 05:47:43;;;;;;;4.45;2.42;;;23.60;74.60;;;;;;5066891;28;20025;-68
2023/08/15 05:50:09;;;;;;;5.97;2.97;;;23.90;72.90;;;;;;5059477;28;20113;-69
2023/08/15 05:52:34;;;;;;;5.68;2.55;;;24.90;70.90;;;;;;5062688;28;20024;-67
2023/08/15 05:55:00;;;;;;;4.07;2.30;;;25.80;68.50;;;;;;5067918;28;20094;-67
2023/08/15 05:57:26;;;;;;;4.47;2.00;;;26.50;66.50;;;;;;5062616;28;20024;-68
2023/08/15 05:59:51;;;;;;;4.40;2.33;;;26.70;65.10;;;;;;5066925;28;20024;-68
2023/08/15 06:02:18;;;;;;;6.65;2.60;;;27.20;63.90;;;;;;5061326;28;20027;-68
2023/08/15 06:04:44;;;;;;;6.80;2.40;;;27.70;62.60;;;;;;5064174;28;20028;-69
2023/08/15 06:07:09;;;;;;;3.78;1.90;;;28.40;61.40;;;;;;5059780;28;20029;-67
2023/08/15 06:09:35;;;;;;;4.57;2.08;;;29.10;59.90;;;;;;5061624;28;20036;-68
2023/08/15 06:12:01;;;;;;;6.82;2.50;;;29.30;58.40;;;;;;5057879;28;20060;-68
2023/08/15 06:14:26;;;;;;;8.27;2.90;;;29.00;58.10;;;;;;5060030;28;20499;-69
2023/08/15 06:16:52;;;;;;;5.28;2.72;;;28.90;57.90;;;;;;5066062;28;20081;-68
2023/08/15 06:19:18;;;;;;;7.18;2.72;;;29.00;58.00;;;;;;5060369;28;20059;-68
2023/08/15 06:21:44;;;;;;;5.45;2.60;;;29.00;57.60;;;;;;5062450;28;20033;-68
2023/08/15 06:24:11;;;;;;;5.78;1.95;;;28.90;57.70;;;;;;5067402;28;20229;-69
2023/08/15 06:26:37;;;;;;;5.65;2.50;;;28.80;57.90;;;;;;5057347;28;20029;-69
2023/08/15 06:29:03;;;;;;;5.82;2.42;;;28.30;58.60;;;;;;5067159;28;20021;-68
2023/08/15 06:31:30;;;;;;;5.53;2.17;;;29.00;58.20;;;;;;5062955;28;20074;-69
2023/08/15 06:33:55;;;;;;;5.25;2.42;;;29.50;57.00;;;;;;5062572;28;20017;-68
2023/08/15 06:36:22;;;;;;;5.65;2.88;;;29.50;56.40;;;;;;5065003;28;20513;-69
2023/08/15 06:38:49;;;;;;;4.95;2.13;;;29.50;56.00;;;;;;5063956;28;20667;-69
2023/08/15 06:41:15;;;;;;;8.20;3.03;;;29.70;56.10;;;;;;5065773;28;20025;-68
2023/08/15 06:43:40;;;;;;;4.50;2.50;;;30.20;55.30;;;;;;5066609;28;20412;-68
2023/08/15 06:46:06;;;;;;;5.25;2.20;;;30.60;54.80;;;;;;5065357;28;20037;-68
2023/08/15 06:48:31;;;;;;;6.78;2.53;;;31.20;53.90;;;;;;5063239;28;20029;-69
2023/08/15 06:50:57;;;;;;;5.75;2.38;;;31.10;53.60;;;;;;5065575;28;20074;-69
2023/08/15 06:53:23;;;;;;;4.35;2.25;;;31.20;53.30;;;;;;5065278;28;20505;-69
2023/08/15 06:55:49;;;;;;;5.93;2.38;;;30.40;53.70;;;;;;5065876;28;20438;-68
2023/08/15 06:58:15;;;;;;;5.07;2.58;;;29.60;55.00;;;;;;5064358;28;20030;-68
2023/08/15 07:00:42;;;;;;;5.32;2.38;;;29.10;56.30;;;;;;5062380;28;20395;-69
2023/08/15 07:03:08;;;;;;;6.70;2.70;;;29.20;56.70;;;;;;5064188;28;20029;-68
2023/08/15 07:05:34;;;;;;;5.30;2.03;;;29.80;55.80;;;;;;5064889;28;20059;-68
2023/08/15 07:08:00;;;;;;;7.93;2.72;;;30.10;55.40;;;;;;5061732;28;20054;-69
2023/08/15 07:10:26;;;;;;;4.55;2.30;;;29.90;55.60;;;;;;5066339;28;20098;-70
2023/08/15 07:12:51;;;;;;;6.97;2.95;;;30.40;55.10;;;;;;5059428;28;20470;-69
2023/08/15 07:15:17;;;;;;;6.95;2.90;;;29.40;55.40;;;;;;5064857;28;20024;-69
2023/08/15 07:17:42;;;;;;;6.53;2.83;;;28.50;57.10;;;;;;5058834;28;20079;-69
2023/08/15 07:20:10;;;;;;;6.53;2.70;;;28.40;57.80;;;;;;5062657;28;20486;-69
2023/08/15 07:22:36;;;;;;;6.47;3.00;;;28.30;58.20;;;;;;5059266;28;20367;-69
2023/08/15 07:25:01;;;;;;;7.03;2.60;;;28.90;57.90;;;;;;5062382;28;20112;-69
2023/08/15 07:27:27;;;;;;;5.22;2.45;;;29.40;57.20;;;;;;5055501;28;20062;-69
2023/08/15 07:29:53;;;;;;;5.45;2.55;;;30.20;55.90;;;;;;5059338;28;20032;-68
2023/08/15 07:32:19;;;;;;;5.13;2.25;;;30.60;55.00;;;;;;5059556;28;20078;-68
2023/08/15 07:34:45;;;;;;;5.68;2.30;;;30.10;54.90;;;;;;5062070;28;20094;-69
2023/08/15 07:37:11;;;;;;;6.45;2.53;;;29.40;56.20;;;;;;5058500;28;20025;-69
2023/08/15 07:39:36;;;;;;;6.30;2.60;;;29.20;57.00;;;;;;5061363;28;20043;-69
2023/08/15 07:42:02;;;;;;;6.03;2.50;;;29.60;56.80;;;;;;5055040;28;20494;-68
2023/08/15 07:44:28;;;;;;;4.22;2.22;;;30.00;56.30;;;;;;5062225;28;20051;-69
2023/08/15 07:46:53;;;;;;;6.32;2.28;;;30.00;55.90;;;;;;5065672;28;20446;-68
2023/08/15 07:49:19;;;;;;;7.53;3.70;;;29.80;56.40;;;;;;5056812;28;20025;-69
2023/08/15 07:51:45;;;;;;;6.50;3.00;;;29.40;56.40;;;;;;5059956;28;20028;-69
2023/08/15 07:54:10;;;;;;;7.88;3.15;;;28.60;57.50;;;;;;5062356;28;20398;-69
2023/08/15 07:56:36;;;;;;;6.40;2.45;;;28.30;58.30;;;;;;5059957;28;20029;-69
2023/08/15 07:59:03;;;;;;;4.90;2.33;;;28.20;59.00;;;;;;5063520;28;20078;-68
2023/08/15 08:01:29;;;;;;;10.27;2.95;;;28.50;59.20;;;;;;5061397;28;20480;-68
2023/08/15 08:03:55;;;;;;;7.53;2.70;;;28.60;59.00;;;;;;5064855;28;20135;-67
2023/08/15 08:06:21;;;;;;;6.47;2.50;;;28.30;59.30;;;;;;5061151;28;20028;-68
2023/08/15 08:08:47;;;;;;;5.05;2.15;;;28.10;60.00;;;;;;5064080;28;20604;-67
2023/08/15 08:11:13;;;;;;;5.38;2.38;;;27.20;60.90;;;;;;5062675;28;20024;-68
2023/08/15 08:13:39;;;;;;;7.28;2.60;;;26.90;62.00;;;;;;5063972;28;20580;-68
2023/08/15 08:16:04;;;;;;;7.03;2.50;;;26.40;62.80;;;;;;5064316;28;20082;-67
2023/08/15 08:18:30;;;;;;;7.63;2.53;;;26.20;63.60;;;;;;5065287;28;20032;-69
2023/08/15 08:20:56;;;;;;;5.53;2.50;;;26.30;63.60;;;;;;5062052;28;20489;-68
2023/08/15 08:23:23;;;;;;;5.53;2.05;;;26.20;64.00;;;;;;5066179;28;20025;-68
2023/08/15 08:25:49;;;;;;;8.25;2.40;;;26.30;64.10;;;;;;5060476;28;20154;-67
2023/08/15 08:28:15;;;;;;;5.30;2.38;;;26.30;63.90;;;;;;5065120;28;20393;-68
2023/08/15 08:30:42;;;;;;;5.30;1.90;;;26.30;64.50;;;;;;5058785;28;20025;-68
2023/08/15 08:33:09;;;;;;;6.25;2.25;;;26.40;63.90;;;;;;5062541;28;20100;-68
2023/08/15 08:35:35;;;;;;;5.85;2.05;;;26.30;63.80;;;;;;5060521;28;20083;-68
2023/08/15 08:38:01;;;;;;;3.28;1.88;;;26.50;64.20;;;;;;5060275;28;20074;-68
2023/08/15 08:40:27;;;;;;;4.50;2.20;;;26.50;63.90;;;;;;5058004;28;20036;-68
2023/08/15 08:42:53;;;;;;;6.03;2.42;;;26.50;63.70;;;;;;5064093;28;20021;-68
2023/08/15 08:45:24;;;;;;;6.15;2.03;;;26.40;63.70;;;;;;5057975;28;20090;-68
2023/08/15 08:47:50;;;;;;;5.27;1.80;;;26.50;64.20;;;;;;5061486;28;20099;-68
2023/08/15 08:50:16;;;;;;;5.25;2.20;;;26.50;64.00;;;;;;5056428;28;20047;-68
2023/08/15 08:52:49;;;;;;;4.00;2.00;;;26.50;64.00;;;;;;5063023;28;20533;-68
2023/08/15 08:55:16;;;;;;;6.60;2.28;;;26.50;64.10;;;;;;5060869;28;20059;-68
2023/08/15 08:57:47;;;;;;;5.63;2.40;;;26.30;64.00;;;;;;5062355;28;20025;-69
2023/08/15 09:00:14;;;;;;;5.85;2.10;;;26.10;64.20;;;;;;5057487;28;20024;-69
2023/08/15 09:02:40;;;;;;;4.97;2.20;;;26.00;64.60;;;;;;5059792;28;20033;-69
2023/08/15 09:05:07;;;;;;;4.80;2.15;;;25.80;64.80;;;;;;5059931;28;20414;-69
2023/08/15 09:07:35;;;;;;;4.45;2.03;;;25.70;65.10;;;;;;5058031;28;20083;-69
2023/08/15 09:10:00;;;;;;;4.18;2.00;;;25.70;65.10;;;;;;5058985;28;20429;-69
2023/08/15 09:12:37;;;;;;;4.72;1.95;;;25.50;65.30;;;;;;5059386;28;20025;-68
2023/08/15 09:15:07;;;;;;;7.63;1.90;;;25.50;65.50;;;;;;5063874;28;20032;-68
2023/08/15 09:17:32;;;;;;;3.72;1.88;;;25.50;65.40;;;;;;5059967;28;20133;-69
2023/08/15 09:20:09;;;;;;;3.70;1.92;;;25.50;65.50;;;;;;5060451;28;20064;-69
2023/08/15 09:22:38;;;;;;;6.20;2.20;;;25.50;65.50;;;;;;5065584;28;20031;-69
2023/08/15 09:25:04;;;;;;;5.32;1.70;;;25.50;65.40;;;;;;5067935;28;20119;-69
2023/08/15 09:27:30;;;;;;;3.85;1.77;;;25.60;65.30;;;;;;5065252;28;20503;-69
2023/08/15 09:29:55;;;;;;;5.22;2.30;;;25.80;65.20;;;;;;5063138;28;20104;-69
2023/08/15 09:32:21;;;;;;;5.93;2.30;;;25.90;64.80;;;;;;5056271;28;20031;-68
2023/08/15 09:34:47;;;;;;;5.78;1.95;;;25.90;64.60;;;;;;5059426;28;20131;-69
2023/08/15 09:37:13;;;;;;;5.32;2.08;;;25.90;64.40;;;;;;5062366;28;20104;-69
2023/08/15 09:39:39;;;;;;;5.25;2.00;;;25.80;64.30;;;;;;5062244;28;20039;-69
2023/08/15 09:42:05;;;;;;;5.65;2.08;;;26.00;64.50;;;;;;5059589;28;20552;-69
2023/08/15 09:44:34;;;;;;;5.28;1.70;;;26.00;64.30;;;;;;5061886;28;20041;-69
2023/08/15 09:47:01;;;;;;;6.50;2.13;;;26.10;64.20;;;;;;5056562;28;20032;-69
2023/08/15 09:49:28;;;;;;;4.25;1.90;;;26.00;64.00;;;;;;5057647;28;20035;-69
2023/08/15 09:51:56;;;;;;;4.75;2.00;;;25.90;64.20;;;;;;5057316;28;20025;-69
2023/08/15 09:54:24;;;;;;;4.53;2.15;;;25.90;64.40;;;;;;5063351;28;20441;-69
2023/08/15 09:56:50;;;;;;;4.93;2.00;;;25.90;64.60;;;;;;5063563;28;20872;-69
2023/08/15 09:59:15;;;;;;;5.28;2.20;;;26.00;64.60;;;;;;5065935;28;20032;-69
2023/08/15 10:01:44;;;;;;;4.65;2.13;;;26.10;64.60;;;;;;5062435;28;20625;-69
2023/08/15 10:04:12;;;;;;;4.55;2.05;;;26.20;64.40;;;;;;5067686;28;20419;-69
2023/08/15 10:06:41;;;;;;;6.43;2.10;;;26.30;64.30;;;;;;5066259;28;20069;-69
2023/08/15 10:09:09;;;;;;;6.70;2.47;;;26.30;64.40;;;;;;5068458;28;20510;-69
2023/08/15 10:11:42;;;;;;;5.18;2.53;;;26.30;64.30;;;;;;5066452;28;20020;-69
2023/08/15 10:14:09;;;;;;;5.75;2.17;;;26.20;64.20;;;;;;5060966;28;20063;-69
2023/08/15 10:16:35;;;;;;;6.63;2.67;;;26.40;64.30;;;;;;5064085;28;20096;-68
2023/08/15 10:19:01;;;;;;;6.97;2.33;;;26.40;64.00;;;;;;5067133;28;20108;-68
2023/08/15 10:21:49;;;;;;;5.78;1.95;;;26.50;64.10;;;;;;5063865;28;20127;-69
2023/08/15 10:24:15;;;;;;;5.03;2.20;;;26.50;64.20;;;;;;5065206;28;20019;-69
2023/08/15 10:26:42;;;;;;;5.65;2.35;;;26.50;64.10;;;;;;5068254;28;20025;-69
2023/08/15 10:29:07;;;;;;;6.20;3.13;;;26.50;64.10;;;;;;5067154;28;20120;-69
2023/08/15 10:31:41;;;;;;;5.68;2.80;;;26.30;63.80;;;;;;5069064;28;20106;-69
2023/08/15 10:34:10;;;;;;;6.07;2.60;;;26.20;64.10;;;;;;5065829;28;20368;-69
2023/08/15 10:36:39;;;;;;;6.90;2.50;;;26.30;64.20;;;;;;5064926;28;20036;-69
2023/08/15 10:39:06;;;;;;;5.90;3.10;;;26.30;64.10;;;;;;5067206;28;20017;-69
2023/08/15 10:41:35;;;;;;;5.72;2.78;;;26.20;63.80;;;;;;5069069;28;20114;-69
2023/08/15 10:44:04;;;;;;;5.90;3.28;;;26.10;64.00;;;;;;5067396;28;20029;-68
2023/08/15 10:46:31;;;;;;;4.93;3.05;;;26.00;64.10;;;;;;5064363;28;20487;-69
2023/08/15 10:49:07;;;;;;;8.30;3.10;;;26.00;64.40;;;;;;5067721;28;20029;-69
2023/08/15 10:51:38;;;;;;;5.32;2.72;;;26.00;64.90;;;;;;5066076;28;20094;-69
2023/08/15 10:54:13;;;;;;;5.90;2.63;;;26.20;64.80;;;;;;5060680;28;20020;-69
2023/08/15 10:56:41;;;;;;;8.80;4.10;;;26.40;64.80;;;;;;5061556;28;20334;-69
2023/08/15 10:59:12;;;;;;;5.70;2.95;;;26.50;64.10;;;;;;5061298;28;20522;-71
2023/08/15 11:01:39;;;;;;;4.70;2.63;;;26.50;63.90;;;;;;5067339;28;20104;-68
2023/08/15 11:04:10;;;;;;;6.85;2.85;;;26.60;63.70;;;;;;5061507;28;20383;-68
2023/08/15 11:06:46;;;;;;;5.70;2.90;;;26.60;63.20;;;;;;5061523;28;20504;-69
2023/08/15 11:09:12;;;;;;;5.13;2.55;;;26.50;62.80;;;;;;5064778;28;20016;-69
2023/08/15 11:11:38;;;;;;;5.80;2.50;;;26.40;62.90;;;;;;5065926;28;21096;-68
2023/08/15 11:14:04;;;;;;;5.40;2.70;;;26.60;63.00;;;;;;5064191;28;20173;-69
2023/08/15 11:16:30;;;;;;;6.40;2.40;;;26.80;62.50;;;;;;5065713;28;20482;-69
2023/08/15 11:18:59;;;;;;;7.22;2.70;;;26.70;62.10;;;;;;5061840;28;20028;-69
2023/08/15 11:21:28;;;;;;;7.28;2.95;;;26.80;62.10;;;;;;5066143;28;21292;-69
2023/08/15 11:23:58;;;;;;;4.13;2.00;;;26.80;61.40;;;;;;5065877;28;20020;-69
2023/08/15 11:26:25;;;;;;;4.45;2.33;;;26.80;61.90;;;;;;5065872;28;20021;-68
2023/08/15 11:28:51;;;;;;;4.72;2.20;;;26.80;61.90;;;;;;5062854;28;20059;-69
2023/08/15 11:31:16;;;;;;;5.50;2.08;;;26.90;62.10;;;;;;5067783;28;20063;-68
2023/08/15 11:33:43;;;;;;;4.88;2.60;;;26.80;62.20;;;;;;5067501;28;20078;-69
2023/08/15 11:36:10;;;;;;;5.47;2.58;;;26.80;62.40;;;;;;5067273;28;20017;-69
2023/08/15 11:38:36;;;;;;;4.95;2.10;;;26.90;62.40;;;;;;5063381;28;20146;-68
2023/08/15 11:41:03;;;;;;;6.80;2.40;;;26.90;62.20;;;;;;5067835;28;20065;-69
2023/08/15 11:43:29;;;;;;;4.60;2.60;;;27.10;62.00;;;;;;5064035;28;20017;-69
2023/08/15 11:45:56;;;;;;;5.25;2.70;;;27.20;61.90;;;;;;5065405;28;20060;-68
2023/08/15 11:48:21;;;;;;;6.95;2.63;;;27.40;61.60;;;;;;5066971;28;20013;-69
2023/08/15 11:50:47;;;;;;;6.15;2.80;;;27.60;61.10;;;;;;5067440;28;20120;-68
2023/08/15 11:53:18;;;;;;;5.78;2.50;;;27.50;60.90;;;;;;5066632;28;20028;-69
2023/08/15 11:55:45;;;;;;;6.68;3.25;;;27.50;60.80;;;;;;5063795;28;20543;-69
2023/08/15 11:58:27;;;;;;;6.45;2.88;;;27.60;60.60;;;;;;5062693;28;20029;-70
2023/08/15 12:00:56;;;;;;;4.53;2.42;;;27.60;60.70;;;;;;5064774;28;20039;-69
2023/08/15 12:03:25;;;;;;;4.30;2.20;;;27.80;60.70;;;;;;5065248;28;20036;-69
2023/08/15 12:05:55;;;;;;;4.28;2.20;;;27.90;60.50;;;;;;5065862;28;20429;-70
2023/08/15 12:08:22;;;;;;;4.97;2.30;;;28.00;60.60;;;;;;5063413;28;20037;-69
2023/08/15 12:10:48;;;;;;;5.80;2.47;;;28.10;60.20;;;;;;5063253;28;20391;-70
2023/08/15 12:13:13;;;;;;;5.53;2.72;;;28.30;59.70;;;;;;5059516;28;20013;-69
2023/08/15 12:15:39;;;;;;;4.80;2.40;;;28.20;59.50;;;;;;5065060;28;20092;-69
2023/08/15 12:18:05;;;;;;;6.00;2.50;;;28.30;59.70;;;;;;5063524;28;20032;-71
2023/08/15 12:20:31;;;;;;;5.45;2.97;;;28.40;59.30;;;;;;5063228;28;20090;-69
2023/08/15 12:22:56;;;;;;;6.15;2.47;;;28.50;58.80;;;;;;5064579;28;20043;-69
2023/08/15 12:25:22;;;;;;;4.72;2.45;;;28.60;58.50;;;;;;5062885;28;20111;-68
2023/08/15 12:27:47;;;;;;;5.35;2.60;;;28.40;58.30;;;;;;5065027;28;20672;-68
2023/08/15 12:30:13;;;;;;;4.50;2.42;;;28.40;58.00;;;;;;5063800;28;20021;-68
2023/08/15 12:32:39;;;;;;;5.35;3.20;;;28.40;58.40;;;;;;5064571;28;20482;-68
2023/08/15 12:35:05;;;;;;;5.47;2.53;;;28.50;58.00;;;;;;5063294;28;20406;-69
2023/08/15 12:37:30;;;;;;;6.65;2.60;;;28.60;58.00;;;;;;5062717;28;20032;-68
2023/08/15 12:39:56;;;;;;;4.32;2.40;;;28.80;57.40;;;;;;5061025;28;20051;-69
2023/08/15 12:42:21;;;;;;;5.35;2.55;;;28.90;57.20;;;;;;5062313;28;20452;-69
2023/08/15 12:44:47;;;;;;;6.07;2.30;;;28.90;57.30;;;;;;5057596;28;20052;-69